| time (UTC) | temp F | wind direction | speed MPH | gust MPH | rain 1hr in | rain 24hr in | rain mn in | humidity % | barometer mb |
| 20260508180820 | 67 | 0 | 0.0 | 3.0 | 0.00 | 0.00 | 0.00 | 57 | 972.3 |
| 20260508173819 | 69 | 204 | 1.0 | 14.0 | 0.00 | 0.00 | 0.00 | 55 | 972.2 |
| 20260508170818 | 70 | 194 | 1.0 | 13.0 | 0.00 | 0.00 | 0.00 | 53 | 972.1 |
| 20260508163817 | 71 | 0 | 0.0 | 5.0 | 0.00 | 0.00 | 0.00 | 55 | 972.0 |
| 20260508163607 | 71 | 0 | 0.0 | 4.0 | 0.00 | 0.00 | 0.00 | 54 | 971.6 |
| 20260508153818 | 72 | 205 | 0.0 | 4.0 | 0.00 | 0.00 | 0.00 | 55 | 971.8 |
| 20260508153540 | 73 | 207 | 0.0 | 8.0 | 0.00 | 0.00 | 0.00 | 52 | 971.9 |
| 20260508143817 | 73 | 0 | 0.0 | 5.0 | 0.00 | 0.00 | 0.00 | 55 | 972.2 |
| 20260508140816 | 75 | 177 | 0.0 | 2.0 | 0.00 | 0.00 | 0.00 | 52 | 972.4 |
| 20260508133813 | 75 | 205 | 0.0 | 1.0 | 0.00 | 0.00 | 0.00 | 53 | 972.6 |
| 20260508130814 | 76 | 0 | 0.0 | 0.0 | 0.00 | 0.00 | 0.00 | 53 | 972.7 |
| 20260508123814 | 75 | 0 | 0.0 | 0.0 | 0.00 | 0.00 | 0.00 | 56 | 972.7 |
| 20260508120811 | 75 | 0 | 0.0 | 0.0 | 0.00 | 0.00 | 0.00 | 54 | 972.9 |
| 20260508115146 | 74 | 0 | 0.0 | 0.0 | 0.00 | 0.00 | 0.00 | 60 | 973.2 |
| 20260508110811 | 71 | 0 | 0.0 | 0.0 | 0.00 | 0.00 | 0.00 | 62 | 973.4 |
| 20260508103809 | 71 | 0 | 0.0 | 4.0 | 0.00 | 0.00 | 0.00 | 63 | 973.6 |
| 20260508100810 | 69 | 21 | 0.0 | 3.0 | 0.00 | 0.00 | 0.00 | 64 | 973.9 |
| 20260508093810 | 68 | 0 | 0.0 | 2.0 | 0.00 | 0.00 | 0.00 | 62 | 974.0 |
| 20260508090806 | 67 | 116 | 0.0 | 0.0 | 0.00 | 0.00 | 0.00 | 69 | 974.1 |
| 20260508085147 | 64 | 135 | 0.0 | 0.0 | 0.00 | 0.00 | 0.00 | 71 | 974.3 |
| 20260508080803 | 62 | 9 | 0.0 | 0.0 | 0.00 | 0.00 | 0.00 | 73 | 974.2 |
| 20260508073803 | 59 | 338 | 0.0 | 0.0 | 0.00 | 0.00 | 0.00 | 81 | 974.3 |
| 20260508072140 | 56 | 343 | 0.0 | 0.0 | 0.00 | 0.00 | 0.00 | 91 | 974.2 |
| 20260508070804 | 56 | 343 | 0.0 | 0.0 | 0.00 | 0.00 | 0.00 | 91 | 974.2 |
| 20260508063803 | 52 | 343 | 0.0 | 0.0 | 0.00 | 0.00 | 0.00 | 95 | 974.1 |
| 20260508062203 | 49 | 0 | 0.0 | 0.0 | 0.00 | 0.00 | 0.00 | 95 | 973.9 |
| 20260508055138 | 46 | 344 | 0.0 | 0.0 | 0.00 | 0.00 | 0.00 | 94 | 973.6 |
| 20260508050756 | 45 | 0 | 0.0 | 0.0 | 0.00 | 0.00 | 0.00 | 93 | 973.5 |
| 20260508043756 | 45 | 344 | 0.0 | 0.0 | 0.00 | 0.00 | 0.00 | 93 | 973.4 |
| 20260508040749 | 45 | 344 | 0.0 | 0.0 | 0.00 | 0.00 | 0.00 | 92 | 973.3 |
| 20260508033747 | 46 | 344 | 0.0 | 0.0 | 0.00 | 0.00 | 0.00 | 92 | 973.5 |
| 20260508030753 | 46 | 342 | 0.0 | 0.0 | 0.00 | 0.00 | 0.00 | 92 | 973.6 |
| 20260508023748 | 47 | 344 | 0.0 | 0.0 | 0.00 | 0.00 | 0.00 | 92 | 973.5 |
| 20260508020745 | 47 | 344 | 0.0 | 0.0 | 0.00 | 0.00 | 0.00 | 91 | 973.4 |
| 20260508013744 | 48 | 343 | 0.0 | 0.0 | 0.00 | 0.00 | 0.00 | 91 | 973.3 |
| 20260508010743 | 48 | 343 | 0.0 | 0.0 | 0.00 | 0.00 | 0.00 | 90 | 973.4 |
| 20260508003741 | 49 | 343 | 0.0 | 0.0 | 0.00 | 0.00 | 0.00 | 90 | 973.4 |
| 20260508000737 | 49 | 343 | 0.0 | 0.0 | 0.00 | 0.00 | 0.00 | 89 | 973.4 |
| 20260507233737 | 49 | 343 | 0.0 | 0.0 | 0.00 | 0.00 | 0.00 | 88 | 973.5 |
| 20260507230735 | 50 | 0 | 0.0 | 0.0 | 0.00 | 0.00 | 0.00 | 88 | 973.4 |
| 20260507223734 | 51 | 0 | 0.0 | 0.0 | 0.00 | 0.00 | 0.00 | 87 | 973.4 |
| 20260507220734 | 51 | 344 | 0.0 | 0.0 | 0.00 | 0.00 | 0.00 | 86 | 973.5 |
| 20260507215135 | 52 | 344 | 0.0 | 0.0 | 0.00 | 0.00 | 0.00 | 84 | 973.2 |
| 20260507210731 | 53 | 344 | 0.0 | 0.0 | 0.00 | 0.00 | 0.00 | 83 | 973.2 |
| 20260507210457 | 54 | 343 | 0.0 | 0.0 | 0.00 | 0.00 | 0.00 | 80 | 973.2 |
| 20260507200731 | 56 | 346 | 0.0 | 0.0 | 0.00 | 0.00 | 0.00 | 76 | 972.9 |
| 20260507193730 | 58 | 345 | 0.0 | 0.0 | 0.00 | 0.00 | 0.00 | 74 | 972.7 |
| 20260507190730 | 60 | 344 | 0.0 | 0.0 | 0.00 | 0.00 | 0.00 | 71 | 972.5 |
| 20260507183729 | 62 | 340 | 0.0 | 0.0 | 0.00 | 0.00 | 0.00 | 69 | 972.2 |
| 20260507182126 | 63 | 346 | 0.0 | 0.0 | 0.00 | 0.00 | 0.00 | 67 | 972.1 |